createdAt,value
2023-03-24T00:01:49.466Z,15.10
2023-03-24T00:04:39.140Z,11.60
2023-03-24T00:07:30.443Z,11.48
2023-03-24T00:10:20.539Z,9.75
2023-03-24T00:13:09.444Z,15.13
2023-03-24T00:15:57.990Z,12.70
2023-03-24T00:18:50.729Z,9.20
2023-03-24T00:21:38.655Z,9.93
2023-03-24T00:24:29.360Z,8.95
2023-03-24T00:27:18.740Z,9.00
2023-03-24T00:30:11.534Z,10.93
2023-03-24T00:33:01.875Z,11.95
2023-03-24T00:35:49.963Z,9.80
2023-03-24T00:38:39.931Z,11.18
2023-03-24T00:41:28.965Z,12.23
2023-03-24T00:44:20.572Z,9.05
2023-03-24T00:47:09.826Z,13.15
2023-03-24T00:49:58.287Z,11.73
2023-03-24T00:52:48.344Z,8.40
2023-03-24T00:55:38.062Z,10.90
2023-03-24T00:58:26.327Z,10.13
2023-03-24T01:01:14.231Z,11.90
2023-03-24T01:04:03.309Z,12.57
2023-03-24T01:06:52.365Z,10.73
2023-03-24T01:09:40.807Z,11.05
2023-03-24T01:12:36.768Z,9.88
2023-03-24T01:15:33.316Z,10.98
2023-03-24T01:18:23.922Z,11.80
2023-03-24T01:21:13.009Z,9.27
2023-03-24T01:24:03.354Z,11.10
2023-03-24T01:26:51.461Z,9.32
2023-03-24T01:29:39.888Z,9.93
2023-03-24T01:32:29.665Z,10.57
2023-03-24T01:35:18.226Z,9.90
2023-03-24T01:38:08.805Z,9.45
2023-03-24T01:40:56.791Z,12.13
2023-03-24T01:43:45.355Z,17.25
2023-03-24T01:46:36.500Z,12.07
2023-03-24T01:49:35.704Z,12.20
2023-03-24T01:52:36.551Z,11.05
2023-03-24T01:55:24.598Z,10.60
2023-03-24T01:58:13.026Z,11.52
2023-03-24T02:01:00.831Z,14.15
2023-03-24T02:03:49.127Z,14.75
2023-03-24T02:06:41.192Z,11.98
2023-03-24T02:09:29.307Z,13.98
2023-03-24T02:12:18.349Z,12.10
2023-03-24T02:15:07.392Z,11.75
2023-03-24T02:18:19.189Z,19.58
2023-03-24T02:21:25.735Z,12.57
2023-03-24T02:24:32.613Z,13.98
2023-03-24T02:27:53.037Z,11.68
2023-03-24T02:31:43.755Z,12.48
2023-03-24T02:34:59.147Z,14.57
2023-03-24T02:38:17.306Z,12.60
2023-03-24T02:41:47.203Z,12.10
2023-03-24T02:45:27.242Z,11.50
2023-03-24T02:48:41.630Z,11.50
2023-03-24T02:51:54.106Z,11.00
2023-03-24T02:55:08.912Z,9.80
2023-03-24T02:58:05.515Z,11.18
2023-03-24T03:01:03.638Z,13.55
2023-03-24T03:03:55.109Z,14.85
2023-03-24T03:06:52.562Z,11.20
2023-03-24T03:09:49.368Z,15.00
2023-03-24T03:12:38.806Z,10.55
2023-03-24T03:15:33.042Z,11.32
2023-03-24T03:18:34.111Z,15.23
2023-03-24T03:21:25.432Z,10.95
2023-03-24T03:24:27.657Z,12.20
2023-03-24T03:27:21.283Z,11.27
2023-03-24T03:30:38.601Z,10.90
2023-03-24T03:33:35.906Z,9.45
2023-03-24T03:36:30.415Z,12.63
2023-03-24T03:39:36.015Z,9.05
2023-03-24T03:42:24.989Z,10.02
2023-03-24T03:45:14.357Z,10.02
2023-03-24T03:48:02.514Z,9.40
2023-03-24T03:50:57.336Z,14.15
2023-03-24T03:53:58.503Z,14.55
2023-03-24T03:56:48.462Z,10.82
2023-03-24T03:59:39.204Z,10.15
2023-03-24T04:02:35.882Z,12.20
2023-03-24T04:05:51.276Z,17.02
2023-03-24T04:09:10.215Z,10.88
2023-03-24T04:12:20.451Z,11.68
2023-03-24T04:15:33.842Z,12.93
2023-03-24T04:19:23.848Z,14.07
2023-03-24T04:22:28.256Z,13.68
2023-03-24T04:28:26.726Z,16.95
2023-03-24T04:31:34.200Z,13.63
2023-03-24T04:34:32.883Z,16.80
2023-03-24T04:37:32.644Z,13.35
2023-03-24T04:40:22.749Z,15.15
2023-03-24T04:43:17.266Z,15.73
2023-03-24T04:46:07.455Z,13.75
2023-03-24T04:48:55.741Z,12.45
2023-03-24T04:51:45.046Z,12.95
2023-03-24T04:54:33.607Z,14.18
2023-03-24T04:57:23.819Z,11.82
2023-03-24T05:00:12.995Z,15.48
2023-03-24T05:03:00.990Z,14.93
2023-03-24T05:05:50.917Z,17.02
2023-03-24T05:08:39.693Z,15.93
2023-03-24T05:11:28.493Z,17.92
2023-03-24T05:14:16.956Z,15.88
2023-03-24T05:17:04.761Z,18.70
2023-03-24T05:19:53.008Z,18.88
2023-03-24T05:22:41.118Z,16.83
2023-03-24T05:25:29.072Z,16.88
2023-03-24T05:28:16.973Z,17.90
2023-03-24T05:31:04.934Z,15.95
2023-03-24T05:33:52.895Z,16.77
2023-03-24T05:36:40.796Z,18.15
2023-03-24T05:39:28.683Z,22.05
2023-03-24T05:42:17.174Z,16.90
2023-03-24T05:45:06.510Z,18.73
2023-03-24T05:47:54.473Z,16.25
2023-03-24T05:50:42.589Z,17.92
2023-03-24T05:53:31.139Z,13.52
2023-03-24T05:56:18.988Z,15.30
2023-03-24T05:59:06.922Z,15.88
2023-03-24T06:01:58.631Z,15.30
2023-03-24T06:04:48.896Z,13.50
2023-03-24T06:07:38.933Z,12.82
2023-03-24T06:10:27.955Z,12.13
2023-03-24T06:13:15.970Z,13.20
2023-03-24T06:16:04.184Z,13.48
2023-03-24T06:18:53.143Z,11.68
2023-03-24T06:21:41.204Z,12.52
2023-03-24T06:24:30.113Z,10.80
2023-03-24T06:27:21.685Z,12.20
2023-03-24T06:30:10.820Z,9.80
2023-03-24T06:33:01.975Z,8.35
2023-03-24T06:35:52.736Z,9.68
2023-03-24T06:38:42.209Z,7.00
2023-03-24T06:41:30.173Z,7.85
2023-03-24T06:44:18.286Z,8.85
2023-03-24T06:47:06.581Z,7.20
2023-03-24T06:49:54.524Z,11.55
2023-03-24T06:52:42.412Z,9.05
2023-03-24T06:55:30.201Z,5.80
2023-03-24T06:58:19.649Z,5.68
2023-03-24T07:01:07.547Z,5.50
2023-03-24T07:03:56.140Z,6.25
2023-03-24T07:06:59.858Z,5.90
2023-03-24T07:09:54.929Z,5.65
2023-03-24T07:12:45.293Z,5.80
2023-03-24T07:15:33.729Z,5.57
2023-03-24T07:18:22.034Z,5.50
2023-03-24T07:21:12.699Z,6.82
2023-03-24T07:24:02.320Z,6.07
2023-03-24T07:26:50.481Z,5.70
2023-03-24T07:29:38.715Z,6.53
2023-03-24T07:32:30.810Z,5.93
2023-03-24T07:35:19.079Z,6.38
2023-03-24T07:38:07.305Z,8.35
2023-03-24T07:40:55.397Z,6.63
2023-03-24T07:43:43.422Z,9.77
2023-03-24T07:46:34.426Z,11.80
2023-03-24T07:49:22.438Z,14.82
2023-03-24T07:52:10.321Z,32.38
2023-03-24T07:54:58.236Z,21.55
2023-03-24T07:57:48.273Z,14.02
2023-03-24T08:00:37.660Z,15.18
2023-03-24T08:03:27.893Z,15.23
2023-03-24T08:06:16.715Z,14.80
2023-03-24T08:09:04.825Z,17.67
2023-03-24T08:11:52.948Z,18.00
2023-03-24T08:14:44.553Z,17.80
2023-03-24T08:17:33.779Z,18.35
2023-03-24T08:20:24.724Z,16.30
2023-03-24T08:23:12.673Z,18.13
2023-03-24T08:26:01.436Z,15.82
2023-03-24T08:28:50.036Z,18.67
2023-03-24T08:31:38.360Z,23.58
2023-03-24T08:34:26.198Z,16.60
2023-03-24T08:37:14.139Z,15.85
2023-03-24T08:40:12.149Z,11.07
2023-03-24T08:43:03.741Z,13.02
2023-03-24T08:45:52.472Z,13.35
2023-03-24T08:48:41.369Z,11.45
2023-03-24T08:51:29.540Z,17.08
2023-03-24T08:54:18.233Z,16.95
2023-03-24T08:57:06.815Z,17.38
2023-03-24T08:59:54.834Z,15.18
2023-03-24T09:02:47.006Z,16.77
2023-03-24T09:05:44.576Z,15.35
2023-03-24T09:08:32.817Z,11.90
2023-03-24T09:11:22.427Z,9.55
2023-03-24T09:14:10.247Z,9.50
2023-03-24T09:16:58.153Z,8.75
2023-03-24T09:19:47.712Z,9.20
2023-03-24T09:22:46.962Z,9.05
2023-03-24T09:25:35.134Z,6.53
2023-03-24T09:28:23.326Z,6.10
2023-03-24T09:31:12.062Z,5.47
2023-03-24T09:34:03.865Z,6.80
2023-03-24T09:36:52.108Z,4.28
2023-03-24T09:39:40.332Z,3.85
2023-03-24T09:42:41.558Z,4.25
2023-03-24T09:45:34.894Z,2.75
2023-03-24T09:48:41.809Z,3.90
2023-03-24T09:51:42.999Z,3.40
2023-03-24T09:54:59.271Z,3.58
2023-03-24T09:57:50.729Z,1.55
2023-03-24T10:00:39.065Z,6.32
2023-03-24T10:03:27.593Z,2.88
2023-03-24T10:06:27.037Z,3.72
2023-03-24T10:09:32.365Z,4.60
2023-03-24T10:12:29.632Z,5.13
2023-03-24T10:15:46.756Z,4.82
2023-03-24T10:18:45.488Z,6.05
2023-03-24T10:21:41.165Z,3.35
2023-03-24T10:24:48.272Z,7.50
2023-03-24T10:27:47.910Z,4.03
2023-03-24T10:30:43.038Z,7.60
2023-03-24T10:33:31.873Z,4.78
2023-03-24T10:36:34.145Z,8.32
2023-03-24T10:39:26.312Z,7.40
2023-03-24T10:42:35.409Z,3.97
2023-03-24T10:45:33.469Z,8.27
2023-03-24T10:49:07.143Z,5.78
2023-03-24T10:52:04.075Z,3.60
2023-03-24T10:55:06.385Z,4.68
2023-03-24T10:57:58.426Z,3.08
2023-03-24T11:00:47.269Z,4.05
2023-03-24T11:03:38.010Z,4.55
2023-03-24T11:06:26.037Z,7.80
2023-03-24T11:09:21.991Z,7.20
2023-03-24T11:12:32.366Z,4.63
2023-03-24T11:15:29.311Z,7.03
2023-03-24T11:18:18.137Z,3.72
2023-03-24T11:21:08.271Z,4.97
2023-03-24T11:24:04.387Z,3.78
2023-03-24T11:27:02.054Z,5.32
2023-03-24T11:29:56.607Z,5.32
2023-03-24T11:32:48.195Z,5.55
2023-03-24T11:35:59.324Z,3.60
2023-03-24T11:39:28.090Z,4.47
2023-03-24T11:42:18.409Z,4.47
2023-03-24T11:45:33.205Z,3.15
2023-03-24T11:51:37.391Z,4.70
2023-03-24T11:54:33.324Z,2.75
2023-03-24T11:57:44.513Z,7.50
2023-03-24T12:00:47.210Z,2.63
2023-03-24T12:03:59.500Z,4.78
2023-03-24T12:07:01.628Z,2.47
2023-03-24T12:10:16.387Z,3.60
2023-03-24T12:13:32.276Z,3.20
2023-03-24T12:17:14.020Z,2.97
2023-03-24T12:20:36.765Z,3.97
2023-03-24T12:23:49.480Z,2.95
2023-03-24T12:26:39.707Z,3.38
2023-03-24T12:29:52.441Z,3.33
2023-03-24T12:33:00.162Z,4.65
2023-03-24T12:36:19.767Z,3.67
2023-03-24T12:39:12.957Z,4.53
2023-03-24T12:42:10.882Z,3.13
2023-03-24T12:45:49.878Z,5.32
2023-03-24T12:49:12.057Z,6.82
2023-03-24T12:52:37.324Z,3.13
2023-03-24T12:55:53.436Z,6.22
2023-03-24T12:58:54.455Z,5.38
2023-03-24T13:01:58.211Z,4.28
2023-03-24T13:04:49.554Z,3.70
2023-03-24T13:07:39.455Z,6.05
2023-03-24T13:10:31.035Z,3.63
2023-03-24T13:13:25.306Z,5.60
2023-03-24T13:16:23.339Z,3.03
2023-03-24T13:19:24.040Z,3.85
2023-03-24T13:22:21.384Z,8.98
2023-03-24T13:25:37.178Z,7.35
2023-03-24T13:28:34.839Z,3.58
2023-03-24T13:31:26.007Z,5.65
2023-03-24T13:34:31.847Z,3.63
2023-03-24T13:37:25.388Z,3.00
2023-03-24T13:40:23.003Z,7.72
2023-03-24T13:43:17.239Z,4.47
2023-03-24T13:48:58.706Z,4.03
2023-03-24T13:51:47.501Z,2.85
2023-03-24T13:54:37.913Z,1.85
2023-03-24T13:57:26.808Z,4.32
2023-03-24T14:00:24.855Z,3.72
2023-03-24T14:03:22.468Z,3.38
2023-03-24T14:06:48.250Z,2.33
2023-03-24T14:10:01.767Z,4.00
2023-03-24T14:12:58.740Z,6.20
2023-03-24T14:15:54.200Z,3.72
2023-03-24T14:18:42.969Z,3.45
2023-03-24T14:21:34.528Z,2.75
2023-03-24T14:24:28.422Z,5.00
2023-03-24T14:27:37.593Z,4.60
2023-03-24T14:30:33.611Z,5.25
2023-03-24T14:33:26.410Z,3.38
2023-03-24T14:36:40.278Z,5.03
2023-03-24T14:39:46.037Z,7.47
2023-03-24T14:42:33.893Z,5.43
2023-03-24T14:45:33.671Z,4.43
2023-03-24T14:48:57.897Z,5.50
2023-03-24T14:52:32.093Z,2.83
2023-03-24T14:55:22.021Z,6.28
2023-03-24T14:58:39.012Z,5.57
2023-03-24T15:01:38.687Z,5.38
2023-03-24T15:04:26.829Z,3.08
2023-03-24T15:07:15.114Z,6.50
2023-03-24T15:10:03.361Z,3.70
2023-03-24T15:12:52.030Z,7.13
2023-03-24T15:15:48.053Z,4.20
2023-03-24T15:18:38.880Z,2.28
2023-03-24T15:22:00.445Z,4.10
2023-03-24T15:24:52.177Z,4.28
2023-03-24T15:27:40.611Z,5.50
2023-03-24T15:30:29.276Z,3.75
2023-03-24T15:33:18.099Z,3.88
2023-03-24T15:36:16.846Z,4.50
2023-03-24T15:39:18.935Z,7.25
2023-03-24T15:42:18.500Z,9.77
2023-03-24T15:45:22.269Z,3.38
2023-03-24T15:48:17.461Z,5.35
2023-03-24T15:51:09.434Z,3.28
2023-03-24T15:53:59.219Z,7.25
2023-03-24T15:57:14.014Z,5.03
2023-03-24T16:02:53.765Z,3.22
2023-03-24T16:05:48.666Z,4.93
2023-03-24T16:08:41.151Z,4.35
2023-03-24T16:11:29.755Z,4.88
2023-03-24T16:14:24.258Z,3.03
2023-03-24T16:17:12.243Z,4.05
2023-03-24T16:20:00.237Z,5.78
2023-03-24T16:22:48.249Z,2.35
2023-03-24T16:25:36.284Z,2.97
2023-03-24T16:28:25.339Z,4.00
2023-03-24T16:31:27.508Z,6.55
2023-03-24T16:34:21.925Z,5.65
2023-03-24T16:37:10.722Z,5.38
2023-03-24T16:39:58.676Z,5.38
2023-03-24T16:42:46.782Z,3.45
2023-03-24T16:45:35.773Z,6.15
2023-03-24T16:48:23.806Z,5.68
2023-03-24T16:51:17.069Z,3.53
2023-03-24T16:54:05.714Z,4.10
2023-03-24T16:56:53.734Z,5.55
2023-03-24T16:59:42.152Z,4.22
2023-03-24T17:02:31.954Z,4.95
2023-03-24T17:05:28.118Z,5.13
2023-03-24T17:08:22.765Z,4.93
2023-03-24T17:11:16.441Z,2.55
2023-03-24T17:14:08.477Z,4.93
2023-03-24T17:16:56.598Z,7.50
2023-03-24T17:19:44.769Z,5.18
2023-03-24T17:22:32.897Z,4.40
2023-03-24T17:25:23.505Z,5.38
2023-03-24T17:28:18.278Z,5.07
2023-03-24T17:31:06.299Z,5.35
2023-03-24T17:33:54.278Z,5.40
2023-03-24T17:36:42.243Z,4.07
2023-03-24T17:39:33.055Z,5.40
2023-03-24T17:42:21.765Z,6.78
2023-03-24T17:45:20.564Z,4.18
2023-03-24T17:48:08.777Z,4.13
2023-03-24T17:50:57.318Z,7.72
2023-03-24T17:53:48.253Z,3.80
2023-03-24T17:56:42.397Z,7.38
2023-03-24T18:02:18.215Z,7.47
2023-03-24T18:05:07.616Z,3.15
2023-03-24T18:07:55.438Z,5.60
2023-03-24T18:10:43.688Z,5.93
2023-03-24T18:13:31.536Z,5.85
2023-03-24T18:16:22.196Z,5.93
2023-03-24T18:19:13.823Z,10.48
2023-03-24T18:22:01.994Z,4.72
2023-03-24T18:24:50.145Z,8.23
2023-03-24T18:27:38.987Z,9.13
2023-03-24T18:30:26.982Z,6.70
2023-03-24T18:33:16.134Z,4.90
2023-03-24T18:36:06.236Z,4.55
2023-03-24T18:39:09.354Z,5.07
2023-03-24T18:41:57.365Z,7.30
2023-03-24T18:44:46.150Z,7.75
2023-03-24T18:47:35.063Z,11.18
2023-03-24T18:50:23.500Z,6.25
2023-03-24T18:53:13.720Z,5.45
2023-03-24T18:56:09.171Z,6.30
2023-03-24T18:58:57.154Z,6.80
2023-03-24T19:01:47.317Z,3.78
2023-03-24T19:04:35.909Z,5.45
2023-03-24T19:07:26.454Z,8.73
2023-03-24T19:10:15.859Z,9.65
2023-03-24T19:13:05.441Z,7.70
2023-03-24T19:15:56.501Z,9.15
2023-03-24T19:18:44.828Z,6.50
2023-03-24T19:21:33.405Z,5.82
2023-03-24T19:24:21.291Z,8.30
2023-03-24T19:27:11.475Z,5.93
2023-03-24T19:29:59.417Z,6.20
2023-03-24T19:32:47.561Z,5.90
2023-03-24T19:35:35.584Z,5.55
2023-03-24T19:38:23.938Z,11.00
2023-03-24T19:41:14.434Z,5.55
2023-03-24T19:44:04.536Z,6.10
2023-03-24T19:46:52.365Z,4.07
2023-03-24T19:49:42.895Z,3.38
2023-03-24T19:52:39.302Z,2.88
2023-03-24T19:55:27.311Z,3.15
2023-03-24T19:58:19.936Z,3.05
2023-03-24T20:01:09.911Z,3.30
2023-03-24T20:03:59.420Z,6.07
2023-03-24T20:06:51.885Z,2.22
2023-03-24T20:09:42.234Z,2.85
2023-03-24T20:12:31.045Z,3.88
2023-03-24T20:15:19.354Z,1.85
2023-03-24T20:18:07.912Z,3.45
2023-03-24T20:21:01.560Z,4.43
2023-03-24T20:23:51.079Z,2.58
2023-03-24T20:26:38.903Z,5.50
2023-03-24T20:29:27.036Z,5.55
2023-03-24T20:32:16.243Z,3.65
2023-03-24T20:35:09.049Z,4.18
2023-03-24T20:37:57.548Z,3.03
2023-03-24T20:40:46.560Z,5.03
2023-03-24T20:43:39.836Z,7.22
2023-03-24T20:46:27.989Z,6.40
2023-03-24T20:49:17.853Z,3.83
2023-03-24T20:52:08.796Z,2.33
2023-03-24T20:54:56.752Z,5.85
2023-03-24T20:57:44.853Z,5.13
2023-03-24T21:00:32.773Z,4.15
2023-03-24T21:03:21.286Z,4.20
2023-03-24T21:06:11.014Z,4.85
2023-03-24T21:09:02.515Z,6.15
2023-03-24T21:11:55.034Z,5.65
2023-03-24T21:14:47.168Z,4.63
2023-03-24T21:17:36.881Z,4.15
2023-03-24T21:20:31.061Z,4.35
2023-03-24T21:26:15.462Z,4.55
2023-03-24T21:29:03.433Z,6.45
2023-03-24T21:31:51.734Z,4.47
2023-03-24T21:34:39.607Z,3.53
2023-03-24T21:37:30.419Z,8.85
2023-03-24T21:40:21.786Z,9.02
2023-03-24T21:43:11.997Z,7.78
2023-03-24T21:46:02.320Z,4.88
2023-03-24T21:48:53.313Z,4.03
2023-03-24T21:51:42.996Z,3.58
2023-03-24T21:54:34.438Z,2.88
2023-03-24T21:57:25.229Z,2.28
2023-03-24T22:00:17.964Z,3.40
2023-03-24T22:03:06.372Z,4.47
2023-03-24T22:05:58.005Z,1.25
2023-03-24T22:08:48.855Z,2.67
2023-03-24T22:11:42.854Z,4.07
2023-03-24T22:17:21.887Z,2.05
2023-03-24T22:20:12.774Z,2.08
2023-03-24T22:23:03.884Z,2.00
2023-03-24T22:25:53.023Z,2.63
2023-03-24T22:28:42.388Z,1.35
2023-03-24T22:31:30.375Z,2.95
2023-03-24T22:34:18.255Z,3.13
2023-03-24T22:37:06.131Z,2.35
2023-03-24T22:39:54.055Z,2.63
2023-03-24T22:42:42.126Z,1.45
2023-03-24T22:45:29.930Z,2.38
2023-03-24T22:48:18.070Z,0.93
2023-03-24T22:51:06.919Z,3.78
2023-03-24T22:53:54.819Z,2.15
2023-03-24T22:56:42.798Z,3.35
2023-03-24T22:59:32.450Z,2.13
2023-03-24T23:02:24.601Z,4.43
2023-03-24T23:05:13.003Z,3.05
2023-03-24T23:08:01.051Z,1.25
2023-03-24T23:10:49.020Z,3.55
2023-03-24T23:13:38.713Z,3.72
2023-03-24T23:16:29.090Z,2.22
2023-03-24T23:19:17.075Z,2.17
2023-03-24T23:22:05.225Z,3.33
2023-03-24T23:25:00.581Z,4.80
2023-03-24T23:27:50.984Z,2.67
2023-03-24T23:30:40.032Z,1.10
2023-03-24T23:33:28.091Z,2.17
2023-03-24T23:36:19.115Z,1.30
2023-03-24T23:39:07.352Z,1.45
2023-03-24T23:41:55.591Z,1.60
2023-03-24T23:44:43.414Z,1.23
2023-03-24T23:47:33.478Z,1.00
2023-03-24T23:50:24.600Z,1.77
2023-03-24T23:53:12.397Z,3.95
2023-03-24T23:56:06.894Z,1.42
2023-03-24T23:58:54.762Z,5.05
